Lentokenttä METAR

 

EFHK - Helsinki/Vantaa
Etäisyys sääasemasta: IKO 36km
Päivitetty: 16/08/2018 07:20
Selkeää
Selkeää
 Tuulen suunta Vaihteleva
Tuuli: Vaihteleva 1 m/s
Lämpötila: 11°C
Kastepiste: 10°C
Kosteus: 94%
Ilmanpaine: 1016 hPa
Yhteenveto: Selkeää
Näkyvyys: Suurempi kuin 10 km
2018/08/16 04:20 EFHK 160420Z VRB01KT CAVOK 11/10 Q1016 NOSIG
EETN - Tallinn, Estonia
Etäisyys sääasemasta: EKA 97km
Päivitetty: 16/08/2018 07:20
Melko selkeää
Melko selkeää
 Tuulen suunta calm
Tuuli: Tyyntä
Lämpötila: 14°C
Kastepiste: 13°C
Kosteus: 94%
Ilmanpaine: 1016 hPa
Pilvisyys: Melko selkeää
Näkyvyys: 10 km
Pilviraja: Melko selkeää 1372 m
2018/08/16 04:20 EETN 160420Z 00000KT 9999 FEW045 14/13 Q1016 NOSIG
 
EFTU - Turku
Etäisyys sääasemasta: LLU 119km
Päivitetty: 16/08/2018 07:20
Selkeää
Selkeää
 Tuulen suunta I
Tuuli: I 1 m/s
Lämpötila: 10°C
Kastepiste: 8°C
Kosteus: 88%
Ilmanpaine: 1016 hPa
Yhteenveto: Selkeää
Näkyvyys: Suurempi kuin 10 km
2018/08/16 04:20 EFTU 160420Z AUTO 09002KT CAVOK 10/08 Q1016
EFLP - Lappeenranta
Etäisyys sääasemasta: IKO 227km
Päivitetty: 16/08/2018 07:20
Selkeää
Selkeää
 Tuulen suunta IKA
Tuuli: IKA 1 m/s
Lämpötila: 15°C
Kastepiste: 12°C
Kosteus: 82%
Ilmanpaine: 1016 hPa
Yhteenveto: Selkeää
Näkyvyys: Suurempi kuin 10 km
2018/08/16 04:20 EFLP 160420Z AUTO 12001KT CAVOK 15/12 Q1016
 
EFJY - Jyvaskylä
Etäisyys sääasemasta: PKO 253km
Päivitetty: 16/08/2018 07:20
Selkeää
Selkeää
 Tuulen suunta EKA
Tuuli: EKA 1 m/s
Lämpötila: 10°C
Kastepiste: 10°C
Kosteus: 100%
Ilmanpaine: 1015 hPa
Yhteenveto: Selkeää
Näkyvyys: Suurempi kuin 10 km
2018/08/16 04:20 EFJY 160420Z AUTO 16002KT CAVOK 10/10 Q1015
EFSA - Savonlinna
Etäisyys sääasemasta: KO 313km
Päivitetty: 16/08/2018 07:20
Selkeää
Selkeää
 Tuulen suunta E
Tuuli: E 1 m/s
Lämpötila: 13°C
Kastepiste: 13°C
Kosteus: 100%
Ilmanpaine: 1016 hPa
Yhteenveto: Selkeää
Näkyvyys: Suurempi kuin 10 km
2018/08/16 04:20 EFSA 160420Z AUTO 18001KT CAVOK 13/13 Q1016
 
ESSA - Stockholm/Arlanda, Sweden
Etäisyys sääasemasta: L 363km
Päivitetty: 16/08/2018 07:20
Selkeää
Selkeää
 Tuulen suunta E
Tuuli: E 3 m/s
Lämpötila: 15°C
Kastepiste: 14°C
Kosteus: 94%
Ilmanpaine: 1015 hPa
Yhteenveto: Selkeää
Näkyvyys: Suurempi kuin 10 km
2018/08/16 04:20 ESSA 160420Z 17006KT CAVOK 15/14 Q1015 NOSIG
ESGG - Göteborg, Sweden
Etäisyys sääasemasta: LO 900km
Päivitetty: 16/08/2018 07:20
Pilvistä
Pilvistä
 Tuulen suunta E
Tuuli: E 3 m/s
Lämpötila: 16°C
Kastepiste: 16°C
Kosteus: 100%
Ilmanpaine: 1014 hPa
Pilvisyys: Pilvistä
Näkyvyys: 10 km
Pilviraja: Melko selkeää 244 m
Melko pilvistä 1006 m
Pilvistä 1615 m
2018/08/16 04:20 ESGG 160420Z 17006KT 9999 SCT008 BKN033 OVC053 16/16 Q1014
 
ENGM - Oslo, Norway
Etäisyys sääasemasta: L 950km
Päivitetty: 16/08/2018 07:20
Melko selkeää
Melko selkeää
 Tuulen suunta ELO
Tuuli: ELO 6 m/s
Lämpötila: 16°C
Kastepiste: 14°C
Kosteus: 88%
Ilmanpaine: 1009 hPa
Pilvisyys: Melko selkeää
Näkyvyys: 10 km
Pilviraja: Melko selkeää 518 m
Melko selkeää 610 m
2018/08/16 04:20 ENGM 160420Z 20012KT 9999 FEW017 SCT020 16/14 Q1009 NOSIG